ASIAQ
Weather Now
GREENLAND SURVEY
Sorting:
| Location |
Updated [WGT/WGST] |
Temperature [°C] |
Wind [m/s] |
Air pressure [hPa] |
Relative humidity [%] |
Precipitation [mm] |
| Present | Wind chill | Speed | Max |
| Qaanaaq | 02.05 12:00 | -9,6 | n/a | 0,7 ⇒ | 1,6 | 1021 | 60 | 0,0 |
| Kitsissut | 02.05 12:00 | -9,4 | -16,4 | 4,6 ⇘ | 6,2 | 1023 | 72 | n/a |
| Kitsissorsuit | 02.05 12:00 | -11,3 | -17,8 | 3,6 ⇗ | 4,6 | 1020 | 84 | n/a |
| Upernavik | 02.05 12:00 | -10,5 | -16,2 | 3,1 ⇒ | 4,5 | 1008 | 86 | 0,0 |
| Qaarsut | 02.05 12:00 | n/a | n/a | 5,1 ⇘ | n/a | 1013 | n/a | n/a |
| Nuussuaq | 02.05 12:00 | -6,8 | -13,9 | 5,7 ⇘ | 6,7 | 1022 | 82 | n/a |
| Qeqertarsuaq | 02.05 12:00 | -4,5 | -8,0 | 2,2 ⇒ | 3,4 | 1023 | 71 | 0,0 |
| Ilulissat | 02.05 12:00 | -3,6 | -6,6 | 2,0 ⇗ | 2,9 | 1020 | 76 | 0,0 |
| Qasigiannguit | 02.05 12:00 | -3,6 | -6,3 | 1,8 ⇒ | 3,3 | 1022 | 81 | 0,1 |
| Aasiaat | 02.05 12:00 | -5,2 | -10,1 | 3,4 ⇗ | 5,0 | 1019 | 77 | 0,0 |
| Kangerlussuaq | 02.05 12:00 | -1,3 | -3,7 | 1,8 ⇗ | 2,2 | 1017 | 96 | n/a |
| Sisimiut | 02.05 12:00 | -2,3 | -4,3 | 1,5 ⇘ | n/a | 1023 | 91 | 0,1 |
| Maniitsoq | 02.05 12:00 | -1,2 | -5,8 | 4,2 ⇙ | 5,0 | 1019 | 99 | 1,2 |
| Sioralik | 02.05 05:00 | -1,4 | n/a | n/a | n/a | 1023 | 99 | n/a |
| Niaqornaa | n/a | n/a | n/a | n/a | n/a | n/a | n/a | n/a |
| Qeqertannguaq | 02.05 12:00 | 1,4 | -0,7 | 1,9 ⇖ | 3,0 | n/a | 97 | n/a |
| Kapisillit | 02.05 12:00 | 0,3 | -2,4 | 2,3 ⇐ | 4,0 | 1013 | 100 | 0,0 |
| Kuanninnguit | n/a | n/a | n/a | n/a | n/a | n/a | n/a | n/a |
| Nuuk City | 02.05 12:00 | -0,1 | -7,7 | 11,4 ⇑ | 16,1 | 1011 | 100 | 0,2 |
| Ukiiviit | 02.05 12:00 | 0,4 | -7,9 | 15,4 ⇑ | 18,5 | 1022 | 98 | n/a |
| Paamiut | 02.05 12:00 | 0,3 | -4,9 | 5,6 ⇖ | 8,7 | 1021 | 100 | 0,0 |
| Narsarsuaq | 02.05 12:00 | 3,2 | -0,4 | 4,1 ⇗ | n/a | 1023 | 88 | n/a |
| Narsaq | 02.05 12:00 | 1,5 | -1,0 | 2,2 ⇗ | 2,9 | 1024 | 100 | 0,0 |
| Nunarsuit | 02.05 12:00 | 0,8 | -4,5 | 6,2 ⇐ | 6,7 | 1023 | 97 | n/a |
| Upernaviarsuk | 02.05 12:00 | 1,1 | -1,0 | 1,8 ⇗ | 2,8 | 1027 | 98 | n/a |
| Qaqortoq | 02.05 12:00 | 0,3 | -2,8 | 2,6 ⇒ | 4,2 | 1020 | 95 | 0,0 |
| Angisoq | 02.05 12:00 | 1,4 | -4,2 | 7,2 ⇘ | 9,3 | 1026 | 96 | n/a |
| Prins Christian Sund | 02.05 12:00 | 8,8 | 5,8 | 5,7 ⇒ | 8,8 | 1010 | 49 | n/a |
| Nanortalik | 02.05 12:00 | 1,3 | -3,0 | 4,6 ⇓ | 6,3 | 1026 | 91 | n/a |
| Ikermiuarsuk | 02.05 12:00 | 0,7 | -1,8 | 2,1 ⇓ | 3,1 | 1013 | 86 | n/a |
| Ikermit | 02.05 12:00 | 2,1 | -0,6 | 2,6 ⇖ | 3,1 | 1009 | 56 | n/a |
| Kulusuk | 02.05 12:00 | 4,9 | 3,1 | 2,1 ⇗ | 3,5 | 1011 | 40 | n/a |
| Tasiilaq | 02.05 12:00 | 4,4 | -1,4 | 10,8 ⇒ | 15,7 | 1009 | 39 | 0,0 |
| Aputiteeq | 02.05 12:00 | 2,2 | -3,0 | 6,7 ⇓ | 13,9 | 1013 | 39 | n/a |
| Ittoqqortoormiit | 02.05 12:00 | -2,0 | n/a | 0,2 ⇖ | 2,9 | 1003 | 45 | n/a |
| Nerlerit Inaat | n/a | n/a | n/a | n/a | n/a | n/a | n/a | n/a |
| Daneborg | 02.05 12:00 | -8,1 | -11,0 | 2,0 ⇘ | 2,0 | 1010 | 58 | n/a |
| Zackenberg | 02.05 12:00 | n/a | n/a | 2,5 ⇐ | 4,0 | n/a | n/a | n/a |
| Danmarkshavn | 02.05 12:00 | -6,7 | n/a | n/a | 11,0 | 1009 | 72 | n/a |
| Henrik Krøyer Holme | 02.05 12:00 | -9,8 | -24,4 | 26,0 ⇓ | 31,0 | 1006 | 71 | n/a |
| Station Nord | 02.05 12:00 | -11,9 | -21,9 | 8,0 ⇘ | 11,0 | 1011 | 85 | n/a |
| Kap Morris Jesup | 02.05 12:00 | -12,6 | -25,8 | 15,0 ⇒ | 19,0 | 1018 | 79 | n/a |
Advanced version ⤻
Data source - Operated by - Disclaimer ▼